sensor_id;sensor_type;location;lat;lon;timestamp;pressure;altitude;pressure_sealevel;temperature;humidity
72428;BME280;60419;48.880;18.036;2023-06-04T00:01:47;99328.88;;;12.78;58.95
72428;BME280;60419;48.880;18.036;2023-06-04T00:04:32;99312.25;;;13.11;57.74
72428;BME280;60419;48.880;18.036;2023-06-04T00:07:18;99319.31;;;13.47;56.45
72428;BME280;60419;48.880;18.036;2023-06-04T00:10:04;99317.56;;;13.42;56.80
72428;BME280;60419;48.880;18.036;2023-06-04T00:12:50;99317.59;;;13.59;55.80
72428;BME280;60419;48.880;18.036;2023-06-04T00:15:35;99313.16;;;13.81;55.18
72428;BME280;60419;48.880;18.036;2023-06-04T00:18:21;99306.25;;;14.01;54.09
72428;BME280;60419;48.880;18.036;2023-06-04T00:21:06;99316.81;;;13.85;55.24
72428;BME280;60419;48.880;18.036;2023-06-04T00:23:51;99317.28;;;13.87;55.33
72428;BME280;60419;48.880;18.036;2023-06-04T00:26:37;99304.06;;;12.93;55.38
72428;BME280;60419;48.880;18.036;2023-06-04T00:29:22;99303.72;;;12.46;56.90
72428;BME280;60419;48.880;18.036;2023-06-04T00:32:08;99302.56;;;12.39;56.75
72428;BME280;60419;48.880;18.036;2023-06-04T00:34:54;99309.28;;;12.50;58.26
72428;BME280;60419;48.880;18.036;2023-06-04T00:37:40;99313.22;;;12.66;56.91
72428;BME280;60419;48.880;18.036;2023-06-04T00:40:25;99317.00;;;12.56;58.52
72428;BME280;60419;48.880;18.036;2023-06-04T00:43:11;99316.09;;;12.70;57.90
72428;BME280;60419;48.880;18.036;2023-06-04T00:45:58;99284.94;;;12.98;56.70
72428;BME280;60419;48.880;18.036;2023-06-04T00:48:44;99309.97;;;13.04;56.77
72428;BME280;60419;48.880;18.036;2023-06-04T00:51:30;99316.38;;;13.08;56.80
72428;BME280;60419;48.880;18.036;2023-06-04T00:54:16;99279.31;;;12.86;56.39
72428;BME280;60419;48.880;18.036;2023-06-04T00:57:04;99318.75;;;13.01;57.06
72428;BME280;60419;48.880;18.036;2023-06-04T00:59:50;99315.59;;;12.37;58.29
72428;BME280;60419;48.880;18.036;2023-06-04T01:02:38;99317.41;;;11.96;60.56
72428;BME280;60419;48.880;18.036;2023-06-04T01:05:31;99310.50;;;12.12;59.24
72428;BME280;60419;48.880;18.036;2023-06-04T01:08:19;99296.97;;;12.12;59.04
72428;BME280;60419;48.880;18.036;2023-06-04T01:11:05;99323.22;;;12.34;58.57
72428;BME280;60419;48.880;18.036;2023-06-04T01:13:50;99326.44;;;12.37;58.64
72428;BME280;60419;48.880;18.036;2023-06-04T01:16:45;99319.84;;;12.29;59.08
72428;BME280;60419;48.880;18.036;2023-06-04T01:25:38;99322.00;;;12.41;58.79
72428;BME280;60419;48.880;18.036;2023-06-04T01:28:24;99301.03;;;12.01;59.30
72428;BME280;60419;48.880;18.036;2023-06-04T01:31:12;99320.97;;;12.28;59.31
72428;BME280;60419;48.880;18.036;2023-06-04T01:33:59;99318.78;;;12.61;58.14
72428;BME280;60419;48.880;18.036;2023-06-04T01:36:44;99319.16;;;12.01;59.95
72428;BME280;60419;48.880;18.036;2023-06-04T01:39:29;99321.50;;;12.16;59.52
72428;BME280;60419;48.880;18.036;2023-06-04T01:42:15;99315.03;;;12.48;58.79
72428;BME280;60419;48.880;18.036;2023-06-04T01:45:00;99316.59;;;12.81;57.98
72428;BME280;60419;48.880;18.036;2023-06-04T01:47:46;99314.81;;;12.76;57.92
72428;BME280;60419;48.880;18.036;2023-06-04T01:50:32;99285.28;;;12.57;58.54
72428;BME280;60419;48.880;18.036;2023-06-04T01:53:18;99313.88;;;12.18;59.59
72428;BME280;60419;48.880;18.036;2023-06-04T01:56:03;99317.44;;;12.05;60.02
72428;BME280;60419;48.880;18.036;2023-06-04T01:58:49;99322.94;;;11.91;60.74
72428;BME280;60419;48.880;18.036;2023-06-04T02:01:34;99315.72;;;12.31;59.46
72428;BME280;60419;48.880;18.036;2023-06-04T02:04:19;99316.22;;;12.33;59.34
72428;BME280;60419;48.880;18.036;2023-06-04T02:07:06;99321.09;;;12.45;59.01
72428;BME280;60419;48.880;18.036;2023-06-04T02:09:52;99322.50;;;12.74;58.40
72428;BME280;60419;48.880;18.036;2023-06-04T02:12:39;99324.53;;;12.68;58.51
72428;BME280;60419;48.880;18.036;2023-06-04T02:15:25;99325.91;;;12.57;58.30
72428;BME280;60419;48.880;18.036;2023-06-04T02:18:16;99321.50;;;12.39;58.78
72428;BME280;60419;48.880;18.036;2023-06-04T02:21:02;99322.84;;;12.50;58.88
72428;BME280;60419;48.880;18.036;2023-06-04T02:23:47;99328.22;;;12.41;58.67
72428;BME280;60419;48.880;18.036;2023-06-04T02:26:32;99324.59;;;12.46;58.54
72428;BME280;60419;48.880;18.036;2023-06-04T02:29:18;99328.88;;;12.24;59.27
72428;BME280;60419;48.880;18.036;2023-06-04T02:32:04;99330.13;;;12.41;59.03
72428;BME280;60419;48.880;18.036;2023-06-04T02:34:49;99327.38;;;12.63;58.51
72428;BME280;60419;48.880;18.036;2023-06-04T02:37:35;99317.75;;;12.88;58.17
72428;BME280;60419;48.880;18.036;2023-06-04T02:40:20;99326.03;;;12.83;58.32
72428;BME280;60419;48.880;18.036;2023-06-04T02:43:05;99321.13;;;12.54;58.68
72428;BME280;60419;48.880;18.036;2023-06-04T02:45:51;99328.78;;;12.61;58.76
72428;BME280;60419;48.880;18.036;2023-06-04T02:48:36;99327.47;;;12.49;58.96
72428;BME280;60419;48.880;18.036;2023-06-04T02:51:21;99321.25;;;12.49;58.66
72428;BME280;60419;48.880;18.036;2023-06-04T02:54:07;99318.50;;;12.18;59.74
72428;BME280;60419;48.880;18.036;2023-06-04T02:56:52;99324.19;;;12.30;59.37
72428;BME280;60419;48.880;18.036;2023-06-04T02:59:38;99330.41;;;12.62;58.98
72428;BME280;60419;48.880;18.036;2023-06-04T03:02:23;99338.81;;;12.29;59.72
72428;BME280;60419;48.880;18.036;2023-06-04T03:05:11;99338.25;;;12.18;58.57
72428;BME280;60419;48.880;18.036;2023-06-04T03:07:57;99334.69;;;12.31;58.88
72428;BME280;60419;48.880;18.036;2023-06-04T03:10:44;99328.63;;;12.57;56.73
72428;BME280;60419;48.880;18.036;2023-06-04T03:13:30;99318.69;;;12.44;58.56
72428;BME280;60419;48.880;18.036;2023-06-04T03:16:15;99329.88;;;12.51;58.71
72428;BME280;60419;48.880;18.036;2023-06-04T03:19:00;99329.47;;;12.66;58.36
72428;BME280;60419;48.880;18.036;2023-06-04T03:21:46;99333.03;;;12.84;58.23
72428;BME280;60419;48.880;18.036;2023-06-04T03:24:36;99342.94;;;12.04;60.35
72428;BME280;60419;48.880;18.036;2023-06-04T03:27:22;99346.06;;;12.20;60.62
72428;BME280;60419;48.880;18.036;2023-06-04T03:30:07;99354.41;;;11.87;61.29
72428;BME280;60419;48.880;18.036;2023-06-04T03:32:53;99360.09;;;11.99;61.35
72428;BME280;60419;48.880;18.036;2023-06-04T03:35:40;99358.03;;;11.82;61.34
72428;BME280;60419;48.880;18.036;2023-06-04T03:38:26;99352.81;;;12.08;61.00
72428;BME280;60419;48.880;18.036;2023-06-04T03:41:11;99360.00;;;12.27;60.82
72428;BME280;60419;48.880;18.036;2023-06-04T03:43:57;99363.22;;;12.60;59.41
72428;BME280;60419;48.880;18.036;2023-06-04T03:46:43;99349.28;;;12.44;59.50
72428;BME280;60419;48.880;18.036;2023-06-04T03:49:29;99361.59;;;12.50;59.30
72428;BME280;60419;48.880;18.036;2023-06-04T03:52:15;99361.97;;;12.35;59.62
72428;BME280;60419;48.880;18.036;2023-06-04T03:55:00;99365.63;;;12.62;58.39
72428;BME280;60419;48.880;18.036;2023-06-04T03:57:46;99375.25;;;12.23;60.21
72428;BME280;60419;48.880;18.036;2023-06-04T04:00:32;99371.22;;;11.98;60.54
72428;BME280;60419;48.880;18.036;2023-06-04T04:03:17;99376.50;;;11.80;61.46
72428;BME280;60419;48.880;18.036;2023-06-04T04:06:03;99372.97;;;11.80;61.40
72428;BME280;60419;48.880;18.036;2023-06-04T04:08:48;99386.94;;;12.09;60.59
72428;BME280;60419;48.880;18.036;2023-06-04T04:11:33;99381.16;;;12.25;60.81
72428;BME280;60419;48.880;18.036;2023-06-04T04:14:19;99375.72;;;12.70;58.88
72428;BME280;60419;48.880;18.036;2023-06-04T04:17:05;99372.84;;;13.63;63.97
72428;BME280;60419;48.880;18.036;2023-06-04T04:19:51;99367.19;;;14.73;62.32
72428;BME280;60419;48.880;18.036;2023-06-04T04:22:40;99366.41;;;15.61;57.81
72428;BME280;60419;48.880;18.036;2023-06-04T04:25:26;99365.06;;;16.31;54.48
72428;BME280;60419;48.880;18.036;2023-06-04T04:28:12;99367.13;;;16.13;51.42
72428;BME280;60419;48.880;18.036;2023-06-04T04:30:57;99359.47;;;15.94;52.22
72428;BME280;60419;48.880;18.036;2023-06-04T04:33:44;99371.38;;;15.09;53.01
72428;BME280;60419;48.880;18.036;2023-06-04T04:36:30;99365.28;;;15.62;50.93
72428;BME280;60419;48.880;18.036;2023-06-04T04:39:22;99371.00;;;15.70;51.03
72428;BME280;60419;48.880;18.036;2023-06-04T04:42:08;99371.09;;;15.52;51.00
72428;BME280;60419;48.880;18.036;2023-06-04T04:44:53;99345.91;;;15.34;52.17
72428;BME280;60419;48.880;18.036;2023-06-04T04:47:39;99368.03;;;15.83;54.99
72428;BME280;60419;48.880;18.036;2023-06-04T04:50:24;99370.41;;;16.06;53.22
72428;BME280;60419;48.880;18.036;2023-06-04T04:53:09;99363.66;;;16.58;50.47
72428;BME280;60419;48.880;18.036;2023-06-04T04:55:55;99360.72;;;16.63;46.56
72428;BME280;60419;48.880;18.036;2023-06-04T04:58:40;99366.16;;;14.86;55.57
72428;BME280;60419;48.880;18.036;2023-06-04T05:01:27;99350.09;;;16.37;52.38
72428;BME280;60419;48.880;18.036;2023-06-04T05:04:12;99358.84;;;17.37;48.58
72428;BME280;60419;48.880;18.036;2023-06-04T05:06:57;99365.00;;;17.34;42.87
72428;BME280;60419;48.880;18.036;2023-06-04T05:09:43;99365.59;;;16.57;43.46
72428;BME280;60419;48.880;18.036;2023-06-04T05:12:30;99360.00;;;15.36;47.57
72428;BME280;60419;48.880;18.036;2023-06-04T05:15:16;99354.38;;;14.73;48.85
72428;BME280;60419;48.880;18.036;2023-06-04T05:18:03;99356.50;;;12.89;53.55
72428;BME280;60419;48.880;18.036;2023-06-04T05:20:48;99347.53;;;12.26;54.94
72428;BME280;60419;48.880;18.036;2023-06-04T05:23:34;99357.69;;;12.20;55.80
72428;BME280;60419;48.880;18.036;2023-06-04T05:26:22;99357.47;;;12.30;56.17
72428;BME280;60419;48.880;18.036;2023-06-04T05:29:10;99351.50;;;13.13;54.82
72428;BME280;60419;48.880;18.036;2023-06-04T05:31:56;99352.81;;;13.33;52.84
72428;BME280;60419;48.880;18.036;2023-06-04T05:34:41;99353.38;;;13.79;54.43
72428;BME280;60419;48.880;18.036;2023-06-04T05:37:27;99361.84;;;14.03;54.32
72428;BME280;60419;48.880;18.036;2023-06-04T05:40:13;99359.50;;;13.36;52.95
72428;BME280;60419;48.880;18.036;2023-06-04T05:42:59;99362.78;;;13.55;53.78
72428;BME280;60419;48.880;18.036;2023-06-04T05:45:45;99370.13;;;14.24;52.27
72428;BME280;60419;48.880;18.036;2023-06-04T05:48:30;99368.88;;;13.96;52.42
72428;BME280;60419;48.880;18.036;2023-06-04T05:51:16;99371.94;;;13.28;53.89
72428;BME280;60419;48.880;18.036;2023-06-04T05:54:01;99373.19;;;14.23;51.98
72428;BME280;60419;48.880;18.036;2023-06-04T05:56:46;99373.16;;;13.05;53.91
72428;BME280;60419;48.880;18.036;2023-06-04T05:59:32;99352.34;;;13.49;53.05
72428;BME280;60419;48.880;18.036;2023-06-04T06:02:17;99362.84;;;12.84;53.78
72428;BME280;60419;48.880;18.036;2023-06-04T06:05:03;99380.13;;;13.45;53.02
72428;BME280;60419;48.880;18.036;2023-06-04T06:07:48;99382.63;;;13.73;51.70
72428;BME280;60419;48.880;18.036;2023-06-04T06:10:34;99389.16;;;13.98;51.01
72428;BME280;60419;48.880;18.036;2023-06-04T06:13:20;99389.97;;;13.90;51.02
72428;BME280;60419;48.880;18.036;2023-06-04T06:16:06;99390.59;;;13.87;51.36
72428;BME280;60419;48.880;18.036;2023-06-04T06:18:51;99394.69;;;14.63;49.08
72428;BME280;60419;48.880;18.036;2023-06-04T06:21:37;99400.47;;;14.52;49.01
72428;BME280;60419;48.880;18.036;2023-06-04T06:24:22;99392.00;;;14.54;48.72
72428;BME280;60419;48.880;18.036;2023-06-04T06:27:08;99370.63;;;13.65;49.40
72428;BME280;60419;48.880;18.036;2023-06-04T06:29:53;99362.34;;;13.97;49.57
72428;BME280;60419;48.880;18.036;2023-06-04T06:32:39;99392.13;;;14.58;49.28
72428;BME280;60419;48.880;18.036;2023-06-04T06:35:24;99387.22;;;14.25;49.87
72428;BME280;60419;48.880;18.036;2023-06-04T06:38:09;99388.03;;;14.17;49.43
72428;BME280;60419;48.880;18.036;2023-06-04T06:40:55;99389.00;;;14.12;50.61
72428;BME280;60419;48.880;18.036;2023-06-04T06:43:40;99390.53;;;14.48;50.36
72428;BME280;60419;48.880;18.036;2023-06-04T06:46:25;99386.47;;;14.89;49.72
72428;BME280;60419;48.880;18.036;2023-06-04T06:49:11;99397.75;;;14.52;50.48
72428;BME280;60419;48.880;18.036;2023-06-04T06:51:56;99404.72;;;14.80;50.21
72428;BME280;60419;48.880;18.036;2023-06-04T06:54:41;99395.44;;;14.89;49.91
72428;BME280;60419;48.880;18.036;2023-06-04T06:57:27;99393.53;;;15.49;52.41
72428;BME280;60419;48.880;18.036;2023-06-04T07:00:13;99384.81;;;15.65;46.75
72428;BME280;60419;48.880;18.036;2023-06-04T07:02:58;99392.78;;;15.70;47.00
72428;BME280;60419;48.880;18.036;2023-06-04T07:05:43;99398.00;;;15.83;46.41
72428;BME280;60419;48.880;18.036;2023-06-04T07:08:29;99382.81;;;16.37;45.72
72428;BME280;60419;48.880;18.036;2023-06-04T07:11:14;99388.28;;;16.49;45.44
72428;BME280;60419;48.880;18.036;2023-06-04T07:14:01;99374.50;;;15.70;45.92
72428;BME280;60419;48.880;18.036;2023-06-04T07:16:47;99394.47;;;16.04;46.30
72428;BME280;60419;48.880;18.036;2023-06-04T07:19:33;99400.63;;;16.34;44.99
72428;BME280;60419;48.880;18.036;2023-06-04T07:22:18;99400.50;;;16.31;44.92
72428;BME280;60419;48.880;18.036;2023-06-04T07:25:04;99379.44;;;16.19;44.86
72428;BME280;60419;48.880;18.036;2023-06-04T07:27:50;99385.69;;;16.86;43.42
72428;BME280;60419;48.880;18.036;2023-06-04T07:30:36;99357.97;;;17.33;42.75
72428;BME280;60419;48.880;18.036;2023-06-04T07:33:22;99378.06;;;17.77;42.79
72428;BME280;60419;48.880;18.036;2023-06-04T07:36:10;99370.84;;;18.41;41.35
72428;BME280;60419;48.880;18.036;2023-06-04T07:38:55;99373.78;;;18.77;40.65
72428;BME280;60419;48.880;18.036;2023-06-04T07:41:40;99378.94;;;17.82;41.75
72428;BME280;60419;48.880;18.036;2023-06-04T07:44:26;99381.91;;;19.05;41.01
72428;BME280;60419;48.880;18.036;2023-06-04T07:47:11;99387.81;;;19.74;38.82
72428;BME280;60419;48.880;18.036;2023-06-04T07:49:57;99394.03;;;19.90;38.30
72428;BME280;60419;48.880;18.036;2023-06-04T07:52:42;99390.00;;;20.04;38.46
72428;BME280;60419;48.880;18.036;2023-06-04T07:55:28;99390.44;;;19.86;37.40
72428;BME280;60419;48.880;18.036;2023-06-04T07:58:13;99397.53;;;19.71;36.90
72428;BME280;60419;48.880;18.036;2023-06-04T08:00:59;99397.13;;;19.89;38.15
72428;BME280;60419;48.880;18.036;2023-06-04T08:03:44;99394.34;;;20.44;37.81
72428;BME280;60419;48.880;18.036;2023-06-04T08:06:29;99397.00;;;20.40;36.41
72428;BME280;60419;48.880;18.036;2023-06-04T08:09:15;99401.56;;;19.93;37.13
72428;BME280;60419;48.880;18.036;2023-06-04T08:12:01;99396.53;;;19.80;37.39
72428;BME280;60419;48.880;18.036;2023-06-04T08:14:46;99400.63;;;20.44;37.39
72428;BME280;60419;48.880;18.036;2023-06-04T08:17:31;99396.22;;;20.20;37.15
72428;BME280;60419;48.880;18.036;2023-06-04T08:20:17;99398.44;;;20.53;37.50
72428;BME280;60419;48.880;18.036;2023-06-04T08:23:02;99409.84;;;20.98;37.01
72428;BME280;60419;48.880;18.036;2023-06-04T08:25:48;99410.84;;;20.90;37.80
72428;BME280;60419;48.880;18.036;2023-06-04T08:28:33;99407.56;;;20.80;36.98
72428;BME280;60419;48.880;18.036;2023-06-04T08:31:19;99403.63;;;19.81;38.11
72428;BME280;60419;48.880;18.036;2023-06-04T08:34:05;99400.31;;;20.10;38.00
72428;BME280;60419;48.880;18.036;2023-06-04T08:36:50;99397.75;;;19.63;39.25
72428;BME280;60419;48.880;18.036;2023-06-04T08:39:36;99407.75;;;19.39;40.85
72428;BME280;60419;48.880;18.036;2023-06-04T08:42:26;99401.91;;;19.57;40.42
72428;BME280;60419;48.880;18.036;2023-06-04T08:45:13;99408.72;;;19.82;40.19
72428;BME280;60419;48.880;18.036;2023-06-04T08:50:46;99412.38;;;20.64;35.41
72428;BME280;60419;48.880;18.036;2023-06-04T08:53:33;99417.06;;;19.70;36.51
72428;BME280;60419;48.880;18.036;2023-06-04T08:56:22;99422.56;;;19.38;36.99
72428;BME280;60419;48.880;18.036;2023-06-04T08:59:09;99428.78;;;19.03;38.86
72428;BME280;60419;48.880;18.036;2023-06-04T09:01:56;99352.56;;;18.58;40.19
72428;BME280;60419;48.880;18.036;2023-06-04T09:04:42;99428.19;;;19.26;39.06
72428;BME280;60419;48.880;18.036;2023-06-04T09:07:29;99433.13;;;19.36;39.24
72428;BME280;60419;48.880;18.036;2023-06-04T09:10:18;99433.72;;;19.29;39.06
72428;BME280;60419;48.880;18.036;2023-06-04T09:13:06;99435.28;;;19.78;38.15
72428;BME280;60419;48.880;18.036;2023-06-04T09:16:03;99433.53;;;18.91;37.26
72428;BME280;60419;48.880;18.036;2023-06-04T09:18:49;99443.53;;;19.30;36.02
72428;BME280;60419;48.880;18.036;2023-06-04T09:21:49;99443.44;;;19.11;36.44
72428;BME280;60419;48.880;18.036;2023-06-04T09:24:45;99450.25;;;19.65;37.97
72428;BME280;60419;48.880;18.036;2023-06-04T09:27:39;99427.69;;;19.71;35.59
72428;BME280;60419;48.880;18.036;2023-06-04T09:30:27;99442.41;;;19.83;35.72
72428;BME280;60419;48.880;18.036;2023-06-04T09:33:13;99445.44;;;19.77;36.04
72428;BME280;60419;48.880;18.036;2023-06-04T09:35:58;99425.88;;;20.14;35.83
72428;BME280;60419;48.880;18.036;2023-06-04T09:38:44;99438.13;;;20.79;33.62
72428;BME280;60419;48.880;18.036;2023-06-04T09:41:30;99429.69;;;21.60;34.17
72428;BME280;60419;48.880;18.036;2023-06-04T09:44:16;99430.00;;;22.12;33.57
72428;BME280;60419;48.880;18.036;2023-06-04T09:47:01;99431.28;;;21.91;33.18
72428;BME280;60419;48.880;18.036;2023-06-04T09:49:47;99430.22;;;21.20;34.37
72428;BME280;60419;48.880;18.036;2023-06-04T09:52:34;99431.13;;;21.81;33.34
72428;BME280;60419;48.880;18.036;2023-06-04T09:55:20;99417.69;;;21.72;33.09
72428;BME280;60419;48.880;18.036;2023-06-04T09:58:07;99427.31;;;21.13;32.53
72428;BME280;60419;48.880;18.036;2023-06-04T10:00:54;99414.72;;;20.85;31.96
72428;BME280;60419;48.880;18.036;2023-06-04T10:03:43;99426.53;;;21.12;33.02
72428;BME280;60419;48.880;18.036;2023-06-04T10:06:35;99429.13;;;20.39;34.18
72428;BME280;60419;48.880;18.036;2023-06-04T10:09:23;99416.50;;;20.54;33.79
72428;BME280;60419;48.880;18.036;2023-06-04T10:12:09;99433.19;;;20.88;33.44
72428;BME280;60419;48.880;18.036;2023-06-04T10:14:59;99420.75;;;19.93;34.29
72428;BME280;60419;48.880;18.036;2023-06-04T10:17:47;99430.13;;;20.70;34.23
72428;BME280;60419;48.880;18.036;2023-06-04T10:20:33;99437.09;;;20.87;33.83
72428;BME280;60419;48.880;18.036;2023-06-04T10:23:19;99423.41;;;20.68;33.13
72428;BME280;60419;48.880;18.036;2023-06-04T10:26:07;99438.06;;;20.56;33.70
72428;BME280;60419;48.880;18.036;2023-06-04T10:28:56;99439.97;;;20.52;33.65
72428;BME280;60419;48.880;18.036;2023-06-04T10:31:42;99434.13;;;19.98;34.42
72428;BME280;60419;48.880;18.036;2023-06-04T10:34:28;99451.31;;;19.60;34.52
72428;BME280;60419;48.880;18.036;2023-06-04T10:37:25;99454.78;;;19.57;33.98
72428;BME280;60419;48.880;18.036;2023-06-04T10:40:11;99454.53;;;19.82;34.45
72428;BME280;60419;48.880;18.036;2023-06-04T10:42:56;99434.06;;;19.28;36.17
72428;BME280;60419;48.880;18.036;2023-06-04T10:45:49;99450.34;;;19.05;35.96
72428;BME280;60419;48.880;18.036;2023-06-04T10:48:45;99455.69;;;19.49;36.08
72428;BME280;60419;48.880;18.036;2023-06-04T10:51:31;99453.25;;;19.75;34.01
72428;BME280;60419;48.880;18.036;2023-06-04T10:54:24;99458.59;;;19.88;35.55
72428;BME280;60419;48.880;18.036;2023-06-04T10:57:14;99460.06;;;19.18;35.65
72428;BME280;60419;48.880;18.036;2023-06-04T11:00:00;99456.59;;;19.69;37.32
72428;BME280;60419;48.880;18.036;2023-06-04T11:02:55;99446.06;;;19.71;37.28
72428;BME280;60419;48.880;18.036;2023-06-04T11:05:43;99451.59;;;19.55;37.51
72428;BME280;60419;48.880;18.036;2023-06-04T11:08:30;99446.06;;;18.92;38.09
72428;BME280;60419;48.880;18.036;2023-06-04T11:11:16;99443.00;;;19.09;38.42
72428;BME280;60419;48.880;18.036;2023-06-04T11:14:08;99443.63;;;19.18;38.13
72428;BME280;60419;48.880;18.036;2023-06-04T11:16:54;99454.09;;;18.84;39.21
72428;BME280;60419;48.880;18.036;2023-06-04T11:19:39;99453.25;;;18.68;39.55
72428;BME280;60419;48.880;18.036;2023-06-04T11:22:25;99461.34;;;18.93;39.60
72428;BME280;60419;48.880;18.036;2023-06-04T11:25:10;99460.81;;;18.59;39.42
72428;BME280;60419;48.880;18.036;2023-06-04T11:27:56;99460.28;;;18.81;40.00
72428;BME280;60419;48.880;18.036;2023-06-04T11:30:42;99456.44;;;18.14;40.62
72428;BME280;60419;48.880;18.036;2023-06-04T11:33:27;99438.88;;;18.02;40.98
72428;BME280;60419;48.880;18.036;2023-06-04T11:36:27;99459.53;;;18.40;41.07
72428;BME280;60419;48.880;18.036;2023-06-04T11:39:12;99466.22;;;18.99;40.63
72428;BME280;60419;48.880;18.036;2023-06-04T11:42:04;99470.78;;;18.79;40.24
72428;BME280;60419;48.880;18.036;2023-06-04T11:44:58;99462.09;;;18.49;40.79
72428;BME280;60419;48.880;18.036;2023-06-04T11:47:48;99473.00;;;18.61;40.62
72428;BME280;60419;48.880;18.036;2023-06-04T11:50:34;99476.81;;;18.04;41.23
72428;BME280;60419;48.880;18.036;2023-06-04T11:53:20;99488.09;;;18.02;42.71
72428;BME280;60419;48.880;18.036;2023-06-04T11:56:06;99487.28;;;18.14;43.32
72428;BME280;60419;48.880;18.036;2023-06-04T11:58:53;99487.81;;;18.60;42.50
72428;BME280;60419;48.880;18.036;2023-06-04T12:01:42;99459.25;;;18.17;43.33
72428;BME280;60419;48.880;18.036;2023-06-04T12:04:29;99483.59;;;18.35;43.00
72428;BME280;60419;48.880;18.036;2023-06-04T12:07:20;99487.75;;;18.16;42.88
72428;BME280;60419;48.880;18.036;2023-06-04T12:10:09;99496.72;;;18.17;43.70
72428;BME280;60419;48.880;18.036;2023-06-04T12:12:56;99493.31;;;18.20;43.69
72428;BME280;60419;48.880;18.036;2023-06-04T12:15:42;99490.88;;;17.78;43.65
72428;BME280;60419;48.880;18.036;2023-06-04T12:18:27;99495.19;;;17.91;44.12
72428;BME280;60419;48.880;18.036;2023-06-04T12:21:24;99494.16;;;17.96;44.07
72428;BME280;60419;48.880;18.036;2023-06-04T12:24:13;99500.63;;;18.04;44.29
72428;BME280;60419;48.880;18.036;2023-06-04T12:27:06;99499.16;;;17.57;45.66
72428;BME280;60419;48.880;18.036;2023-06-04T12:32:45;99498.56;;;18.13;45.68
72428;BME280;60419;48.880;18.036;2023-06-04T12:35:30;99498.56;;;18.13;45.89
72428;BME280;60419;48.880;18.036;2023-06-04T12:38:16;99494.03;;;17.92;46.21
72428;BME280;60419;48.880;18.036;2023-06-04T12:41:01;99494.13;;;17.71;47.48
72428;BME280;60419;48.880;18.036;2023-06-04T12:43:46;99498.03;;;17.83;47.01
72428;BME280;60419;48.880;18.036;2023-06-04T12:46:32;99491.53;;;17.87;47.07
72428;BME280;60419;48.880;18.036;2023-06-04T12:49:17;99496.09;;;17.95;47.23
72428;BME280;60419;48.880;18.036;2023-06-04T12:52:03;99497.13;;;17.91;47.28
72428;BME280;60419;48.880;18.036;2023-06-04T12:54:49;99485.72;;;18.41;46.20
72428;BME280;60419;48.880;18.036;2023-06-04T12:57:34;99492.84;;;18.86;44.65
72428;BME280;60419;48.880;18.036;2023-06-04T13:00:20;99487.97;;;19.08;45.04
72428;BME280;60419;48.880;18.036;2023-06-04T13:03:05;99482.09;;;18.65;44.87
72428;BME280;60419;48.880;18.036;2023-06-04T13:05:51;99478.72;;;18.56;45.88
72428;BME280;60419;48.880;18.036;2023-06-04T13:08:36;99469.19;;;18.78;46.20
72428;BME280;60419;48.880;18.036;2023-06-04T13:11:22;99486.00;;;19.08;43.78
72428;BME280;60419;48.880;18.036;2023-06-04T13:14:08;99485.34;;;18.83;45.27
72428;BME280;60419;48.880;18.036;2023-06-04T13:16:54;99476.94;;;18.48;45.73
72428;BME280;60419;48.880;18.036;2023-06-04T13:19:40;99466.88;;;18.80;45.36
72428;BME280;60419;48.880;18.036;2023-06-04T13:22:25;99484.47;;;18.39;46.91
72428;BME280;60419;48.880;18.036;2023-06-04T13:25:11;99477.09;;;18.67;46.01
72428;BME280;60419;48.880;18.036;2023-06-04T13:27:56;99483.66;;;19.39;46.53
72428;BME280;60419;48.880;18.036;2023-06-04T13:30:41;99484.50;;;19.11;46.28
72428;BME280;60419;48.880;18.036;2023-06-04T13:33:27;99470.75;;;19.23;44.88
72428;BME280;60419;48.880;18.036;2023-06-04T13:36:13;99471.69;;;19.15;44.27
72428;BME280;60419;48.880;18.036;2023-06-04T13:38:58;99455.81;;;19.68;42.50
72428;BME280;60419;48.880;18.036;2023-06-04T13:41:43;99460.91;;;19.86;41.86
72428;BME280;60419;48.880;18.036;2023-06-04T13:44:29;99456.00;;;20.50;40.97
72428;BME280;60419;48.880;18.036;2023-06-04T13:47:14;99459.03;;;20.45;41.71
72428;BME280;60419;48.880;18.036;2023-06-04T13:52:45;99458.50;;;20.19;42.09
72428;BME280;60419;48.880;18.036;2023-06-04T13:55:31;99452.63;;;20.02;42.55
72428;BME280;60419;48.880;18.036;2023-06-04T13:58:16;99455.97;;;20.30;42.67
72428;BME280;60419;48.880;18.036;2023-06-04T14:01:02;99455.16;;;19.91;43.94
72428;BME280;60419;48.880;18.036;2023-06-04T14:03:47;99448.38;;;20.24;43.59
72428;BME280;60419;48.880;18.036;2023-06-04T14:06:32;99446.03;;;19.87;44.67
72428;BME280;60419;48.880;18.036;2023-06-04T14:09:20;99434.72;;;20.43;44.52
72428;BME280;60419;48.880;18.036;2023-06-04T14:12:06;99443.69;;;20.63;45.10
72428;BME280;60419;48.880;18.036;2023-06-04T14:14:52;99441.81;;;20.28;45.58
72428;BME280;60419;48.880;18.036;2023-06-04T14:17:38;99440.22;;;20.27;45.72
72428;BME280;60419;48.880;18.036;2023-06-04T14:20:23;99442.00;;;19.49;47.13
72428;BME280;60419;48.880;18.036;2023-06-04T14:23:09;99442.19;;;20.07;46.39
72428;BME280;60419;48.880;18.036;2023-06-04T14:25:57;99435.25;;;20.33;46.41
72428;BME280;60419;48.880;18.036;2023-06-04T14:28:42;99440.34;;;19.95;46.08
72428;BME280;60419;48.880;18.036;2023-06-04T14:31:27;99444.41;;;20.02;48.32
72428;BME280;60419;48.880;18.036;2023-06-04T14:34:13;99440.53;;;20.61;46.07
72428;BME280;60419;48.880;18.036;2023-06-04T14:36:59;99436.19;;;20.02;47.46
72428;BME280;60419;48.880;18.036;2023-06-04T14:39:45;99425.88;;;20.53;46.93
72428;BME280;60419;48.880;18.036;2023-06-04T14:42:30;99439.31;;;20.19;45.63
72428;BME280;60419;48.880;18.036;2023-06-04T14:45:15;99430.72;;;20.60;46.66